Terminal Aerodrome Forecast
Issued by NWS Twin Cities, MN

Home | Current Version | Previous Version | Text Only | Print | Product List | Glossary Off
Versions: 1 2 3 4 5 6 7 8 9 10 11 12 13 14 15 16 17 18 19 20 21 22 23 24 25 26 27 28 29

000
FTUS43 KMPX 200300 AAA
TAFMSP
TAF AMD
KMSP 200300Z 2003/2106 16007KT P6SM SKC
     FM201500 17012KT P6SM SKC
     FM201700 16015G25KT P6SM FEW250
     FM210000 16014KT P6SM BKN200=

USA.gov is the U.S. government's official web portal to all federal, state and local government web resources and services.